sensor_id;sensor_type;location;lat;lon;timestamp;pressure;altitude;pressure_sealevel;temperature;humidity
64076;BME280;50327;51.328;12.324;2022-08-02T00:00:28;53251.34;;;-144.47;54.99
64076;BME280;50327;51.328;12.324;2022-08-02T00:02:53;53267.25;;;-144.47;55.15
64076;BME280;50327;51.328;12.324;2022-08-02T00:05:19;53314.91;;;-144.47;55.28
64076;BME280;50327;51.328;12.324;2022-08-02T00:07:46;53271.22;;;-144.47;55.37
64076;BME280;50327;51.328;12.324;2022-08-02T00:10:14;53299.03;;;-144.47;55.49
64076;BME280;50327;51.328;12.324;2022-08-02T00:12:39;53269.22;;;-144.47;55.33
64076;BME280;50327;51.328;12.324;2022-08-02T00:15:06;53308.97;;;-144.47;55.40
64076;BME280;50327;51.328;12.324;2022-08-02T00:17:36;53281.16;;;-144.47;55.50
64076;BME280;50327;51.328;12.324;2022-08-02T00:20:03;53320.88;;;-144.47;55.69
64076;BME280;50327;51.328;12.324;2022-08-02T00:22:29;53285.13;;;-144.47;55.79
64076;BME280;50327;51.328;12.324;2022-08-02T00:24:54;53308.97;;;-144.47;56.01
64076;BME280;50327;51.328;12.324;2022-08-02T00:27:20;53279.16;;;-144.47;56.21
64076;BME280;50327;51.328;12.324;2022-08-02T00:29:53;53269.22;;;-144.47;56.41
64076;BME280;50327;51.328;12.324;2022-08-02T00:32:27;53301.03;;;-144.47;56.46
64076;BME280;50327;51.328;12.324;2022-08-02T00:34:53;53289.09;;;-144.47;56.34
64076;BME280;50327;51.328;12.324;2022-08-02T00:37:18;53326.84;;;-144.47;56.64
64076;BME280;50327;51.328;12.324;2022-08-02T00:39:44;53259.31;;;-144.47;56.86
64076;BME280;50327;51.328;12.324;2022-08-02T00:42:14;53291.09;;;-144.47;56.76
64076;BME280;50327;51.328;12.324;2022-08-02T00:44:42;53253.34;;;-144.47;56.48
64076;BME280;50327;51.328;12.324;2022-08-02T00:47:10;53295.06;;;-144.47;56.40
64076;BME280;50327;51.328;12.324;2022-08-02T00:49:36;53277.19;;;-144.47;56.22
64076;BME280;50327;51.328;12.324;2022-08-02T00:52:02;53285.13;;;-144.47;56.44
64076;BME280;50327;51.328;12.324;2022-08-02T00:54:30;53293.06;;;-144.47;56.37
64076;BME280;50327;51.328;12.324;2022-08-02T00:57:01;53251.34;;;-144.47;56.41
64076;BME280;50327;51.328;12.324;2022-08-02T00:59:31;53273.22;;;-144.47;56.44
64076;BME280;50327;51.328;12.324;2022-08-02T01:01:59;53299.03;;;-144.47;56.52
64076;BME280;50327;51.328;12.324;2022-08-02T01:04:25;53297.03;;;-144.47;56.51
64076;BME280;50327;51.328;12.324;2022-08-02T01:06:51;53273.22;;;-144.47;56.42
64076;BME280;50327;51.328;12.324;2022-08-02T01:09:22;53297.03;;;-144.47;56.26
64076;BME280;50327;51.328;12.324;2022-08-02T01:11:52;53283.13;;;-144.47;56.25
64076;BME280;50327;51.328;12.324;2022-08-02T01:14:18;53322.88;;;-144.47;56.37
64076;BME280;50327;51.328;12.324;2022-08-02T01:16:49;53293.06;;;-144.47;56.15
64076;BME280;50327;51.328;12.324;2022-08-02T01:19:35;53328.81;;;-144.47;56.00
64076;BME280;50327;51.328;12.324;2022-08-02T01:30:16;53297.03;;;-144.47;55.26
64076;BME280;50327;51.328;12.324;2022-08-02T01:32:46;53293.06;;;-144.47;55.10
64076;BME280;50327;51.328;12.324;2022-08-02T01:35:22;53326.84;;;-144.47;54.82
64076;BME280;50327;51.328;12.324;2022-08-02T01:37:56;53283.13;;;-144.47;54.83
64076;BME280;50327;51.328;12.324;2022-08-02T01:40:28;53287.13;;;-144.47;55.20
64076;BME280;50327;51.328;12.324;2022-08-02T01:42:55;53281.16;;;-144.47;55.34
64076;BME280;50327;51.328;12.324;2022-08-02T01:45:24;53281.16;;;-144.47;55.34
64076;BME280;50327;51.328;12.324;2022-08-02T01:47:51;53289.09;;;-144.47;55.35
64076;BME280;50327;51.328;12.324;2022-08-02T01:50:24;53277.19;;;-144.47;55.40
64076;BME280;50327;51.328;12.324;2022-08-02T01:53:01;53289.09;;;-144.47;55.30
64076;BME280;50327;51.328;12.324;2022-08-02T01:55:35;53303.00;;;-144.47;55.51
64076;BME280;50327;51.328;12.324;2022-08-02T01:58:04;53275.19;;;-144.47;55.35
64076;BME280;50327;51.328;12.324;2022-08-02T02:00:34;53283.13;;;-144.47;55.64
64076;BME280;50327;51.328;12.324;2022-08-02T02:03:05;53303.00;;;-144.47;55.53
64076;BME280;50327;51.328;12.324;2022-08-02T02:05:34;53314.91;;;-144.47;55.50
64076;BME280;50327;51.328;12.324;2022-08-02T02:08:04;53303.00;;;-144.47;55.64
64076;BME280;50327;51.328;12.324;2022-08-02T02:10:33;53297.03;;;-144.47;55.67
64076;BME280;50327;51.328;12.324;2022-08-02T02:13:05;53281.16;;;-144.47;55.92
64076;BME280;50327;51.328;12.324;2022-08-02T02:15:33;53326.84;;;-144.47;56.07
64076;BME280;50327;51.328;12.324;2022-08-02T02:18:03;53295.06;;;-144.47;56.02
64076;BME280;50327;51.328;12.324;2022-08-02T02:20:30;53316.91;;;-144.47;55.96
64076;BME280;50327;51.328;12.324;2022-08-02T02:25:42;53273.22;;;-144.47;55.97
64076;BME280;50327;51.328;12.324;2022-08-02T02:28:12;53308.97;;;-144.47;56.23
64076;BME280;50327;51.328;12.324;2022-08-02T02:30:42;53320.88;;;-144.47;56.11
64076;BME280;50327;51.328;12.324;2022-08-02T02:33:18;53301.03;;;-144.47;55.92
64076;BME280;50327;51.328;12.324;2022-08-02T02:35:54;53273.22;;;-144.47;55.99
64076;BME280;50327;51.328;12.324;2022-08-02T02:38:22;53281.16;;;-144.47;55.65
64076;BME280;50327;51.328;12.324;2022-08-02T02:40:49;53305.00;;;-144.47;55.75
64076;BME280;50327;51.328;12.324;2022-08-02T02:43:17;53344.72;;;-144.47;55.54
64076;BME280;50327;51.328;12.324;2022-08-02T02:45:43;53297.03;;;-144.47;55.75
64076;BME280;50327;51.328;12.324;2022-08-02T02:48:15;53279.16;;;-144.47;55.83
64076;BME280;50327;51.328;12.324;2022-08-02T02:50:42;53314.91;;;-144.47;55.57
64076;BME280;50327;51.328;12.324;2022-08-02T02:53:10;53306.97;;;-144.47;55.77
64076;BME280;50327;51.328;12.324;2022-08-02T02:55:37;53305.00;;;-144.47;56.03
64076;BME280;50327;51.328;12.324;2022-08-02T02:58:04;53306.97;;;-144.47;55.96
64076;BME280;50327;51.328;12.324;2022-08-02T03:00:38;53336.78;;;-144.47;55.71
64076;BME280;50327;51.328;12.324;2022-08-02T03:03:26;53340.75;;;-144.47;55.57
64076;BME280;50327;51.328;12.324;2022-08-02T03:05:51;53316.91;;;-144.47;54.97
64076;BME280;50327;51.328;12.324;2022-08-02T03:08:17;53308.97;;;-144.47;54.77
64076;BME280;50327;51.328;12.324;2022-08-02T03:10:43;53301.03;;;-144.47;54.53
64076;BME280;50327;51.328;12.324;2022-08-02T03:13:10;53301.03;;;-144.47;54.63
64076;BME280;50327;51.328;12.324;2022-08-02T03:15:37;53305.00;;;-144.47;54.45
64076;BME280;50327;51.328;12.324;2022-08-02T03:18:07;53308.97;;;-144.47;54.48
64076;BME280;50327;51.328;12.324;2022-08-02T03:20:32;53324.84;;;-144.47;54.37
64076;BME280;50327;51.328;12.324;2022-08-02T03:23:01;53318.91;;;-144.47;54.53
64076;BME280;50327;51.328;12.324;2022-08-02T03:25:29;53287.13;;;-144.47;55.12
64076;BME280;50327;51.328;12.324;2022-08-02T03:27:54;53334.78;;;-144.47;54.75
64076;BME280;50327;51.328;12.324;2022-08-02T03:30:24;53297.03;;;-144.47;54.79
64076;BME280;50327;51.328;12.324;2022-08-02T03:32:52;53326.84;;;-144.47;55.14
64076;BME280;50327;51.328;12.324;2022-08-02T03:35:18;53295.06;;;-144.47;55.09
64076;BME280;50327;51.328;12.324;2022-08-02T03:37:50;53271.22;;;-144.47;55.40
64076;BME280;50327;51.328;12.324;2022-08-02T03:40:18;53328.81;;;-144.47;55.40
64076;BME280;50327;51.328;12.324;2022-08-02T03:42:48;53277.19;;;-144.47;55.41
64076;BME280;50327;51.328;12.324;2022-08-02T03:45:20;53285.13;;;-144.47;55.54
64076;BME280;50327;51.328;12.324;2022-08-02T03:47:49;53312.94;;;-144.47;55.72
64076;BME280;50327;51.328;12.324;2022-08-02T03:50:16;53318.91;;;-144.47;55.75
64076;BME280;50327;51.328;12.324;2022-08-02T03:52:43;53297.03;;;-144.47;55.95
64076;BME280;50327;51.328;12.324;2022-08-02T03:55:10;53314.91;;;-144.47;55.85
64076;BME280;50327;51.328;12.324;2022-08-02T03:57:40;53316.91;;;-144.47;56.00
64076;BME280;50327;51.328;12.324;2022-08-02T04:00:08;53305.00;;;-144.47;55.60
64076;BME280;50327;51.328;12.324;2022-08-02T04:02:37;53303.00;;;-144.47;55.89
64076;BME280;50327;51.328;12.324;2022-08-02T04:05:06;53289.09;;;-144.47;56.02
64076;BME280;50327;51.328;12.324;2022-08-02T04:07:38;53297.03;;;-144.47;56.21
64076;BME280;50327;51.328;12.324;2022-08-02T04:10:04;53297.03;;;-144.47;56.11
64076;BME280;50327;51.328;12.324;2022-08-02T04:12:32;53320.88;;;-144.47;56.09
64076;BME280;50327;51.328;12.324;2022-08-02T04:15:04;53305.00;;;-144.47;56.14
64076;BME280;50327;51.328;12.324;2022-08-02T04:17:41;53308.97;;;-144.47;56.34
64076;BME280;50327;51.328;12.324;2022-08-02T04:20:17;53303.00;;;-144.47;56.66
64076;BME280;50327;51.328;12.324;2022-08-02T04:23:06;53322.88;;;-144.47;56.71
64076;BME280;50327;51.328;12.324;2022-08-02T04:25:37;53297.03;;;-144.47;56.62
64076;BME280;50327;51.328;12.324;2022-08-02T04:28:15;53322.88;;;-144.47;56.42
64076;BME280;50327;51.328;12.324;2022-08-02T04:30:44;53297.03;;;-144.47;56.07
64076;BME280;50327;51.328;12.324;2022-08-02T04:33:13;53318.91;;;-144.47;56.24
64076;BME280;50327;51.328;12.324;2022-08-02T04:35:39;53336.78;;;-144.47;56.34
64076;BME280;50327;51.328;12.324;2022-08-02T04:38:08;53350.69;;;-144.47;56.41
64076;BME280;50327;51.328;12.324;2022-08-02T04:40:37;53328.81;;;-144.47;56.57
64076;BME280;50327;51.328;12.324;2022-08-02T04:43:09;53334.78;;;-144.47;56.06
64076;BME280;50327;51.328;12.324;2022-08-02T04:45:34;53318.91;;;-144.47;56.00
64076;BME280;50327;51.328;12.324;2022-08-02T04:48:04;53293.06;;;-144.47;55.75
64076;BME280;50327;51.328;12.324;2022-08-02T04:50:53;53334.78;;;-144.47;55.05
64076;BME280;50327;51.328;12.324;2022-08-02T04:53:22;53291.09;;;-144.47;54.75
64076;BME280;50327;51.328;12.324;2022-08-02T04:55:48;53326.84;;;-144.47;54.25
64076;BME280;50327;51.328;12.324;2022-08-02T04:58:13;53310.94;;;-144.47;53.62
64076;BME280;50327;51.328;12.324;2022-08-02T05:00:42;53314.91;;;-144.47;53.90
64076;BME280;50327;51.328;12.324;2022-08-02T05:03:11;53310.94;;;-144.47;53.63
64076;BME280;50327;51.328;12.324;2022-08-02T05:05:49;53326.84;;;-144.47;53.09
64076;BME280;50327;51.328;12.324;2022-08-02T05:08:26;53318.91;;;-144.47;53.04
64076;BME280;50327;51.328;12.324;2022-08-02T05:11:02;53281.16;;;-144.47;52.88
64076;BME280;50327;51.328;12.324;2022-08-02T05:13:32;53269.22;;;-144.47;52.88
64076;BME280;50327;51.328;12.324;2022-08-02T05:16:21;53308.97;;;-144.47;52.38
64076;BME280;50327;51.328;12.324;2022-08-02T05:18:52;53297.03;;;-144.47;52.15
64076;BME280;50327;51.328;12.324;2022-08-02T05:21:19;53299.03;;;-144.47;52.10
64076;BME280;50327;51.328;12.324;2022-08-02T05:23:45;53308.97;;;-144.47;51.79
64076;BME280;50327;51.328;12.324;2022-08-02T05:26:13;53305.00;;;-144.47;52.12
64076;BME280;50327;51.328;12.324;2022-08-02T05:28:43;53245.41;;;-144.47;52.17
64076;BME280;50327;51.328;12.324;2022-08-02T05:31:10;53334.78;;;-144.47;51.64
64076;BME280;50327;51.328;12.324;2022-08-02T05:33:56;53293.06;;;-144.47;51.52
64076;BME280;50327;51.328;12.324;2022-08-02T05:36:25;53275.19;;;-144.47;51.32
64076;BME280;50327;51.328;12.324;2022-08-02T05:38:51;53305.00;;;-144.47;51.22
64076;BME280;50327;51.328;12.324;2022-08-02T05:41:18;53295.06;;;-144.47;51.42
64076;BME280;50327;51.328;12.324;2022-08-02T05:43:47;53285.13;;;-144.47;50.92
64076;BME280;50327;51.328;12.324;2022-08-02T05:46:13;53295.06;;;-144.47;50.33
64076;BME280;50327;51.328;12.324;2022-08-02T05:48:44;53241.44;;;-144.47;49.76
64076;BME280;50327;51.328;12.324;2022-08-02T05:51:27;53279.16;;;-144.47;49.36
64076;BME280;50327;51.328;12.324;2022-08-02T06:00:09;53279.16;;;-144.47;49.83
64076;BME280;50327;51.328;12.324;2022-08-02T06:05:15;53257.31;;;-144.47;50.58
64076;BME280;50327;51.328;12.324;2022-08-02T06:07:53;53291.09;;;-144.47;50.16
64076;BME280;50327;51.328;12.324;2022-08-02T06:10:22;53279.16;;;-144.47;50.13
64076;BME280;50327;51.328;12.324;2022-08-02T06:13:08;53281.16;;;-144.47;49.99
64076;BME280;50327;51.328;12.324;2022-08-02T06:15:37;53259.31;;;-144.47;49.97
64076;BME280;50327;51.328;12.324;2022-08-02T06:18:11;53265.25;;;-144.47;50.16
64076;BME280;50327;51.328;12.324;2022-08-02T06:20:39;53277.19;;;-144.47;49.75
64076;BME280;50327;51.328;12.324;2022-08-02T06:23:07;53245.41;;;-144.47;49.46
64076;BME280;50327;51.328;12.324;2022-08-02T06:25:36;53320.88;;;-144.47;49.36
64076;BME280;50327;51.328;12.324;2022-08-02T06:28:07;53275.19;;;-144.47;49.59
64076;BME280;50327;51.328;12.324;2022-08-02T06:30:39;53273.22;;;-144.47;49.90
64076;BME280;50327;51.328;12.324;2022-08-02T06:33:16;53277.19;;;-144.47;50.03
64076;BME280;50327;51.328;12.324;2022-08-02T06:36:03;53297.03;;;-144.47;49.85
64076;BME280;50327;51.328;12.324;2022-08-02T06:38:39;53289.09;;;-144.47;49.63
64076;BME280;50327;51.328;12.324;2022-08-02T06:41:10;53253.34;;;-144.47;49.31
64076;BME280;50327;51.328;12.324;2022-08-02T06:43:53;53279.16;;;-144.47;48.49
64076;BME280;50327;51.328;12.324;2022-08-02T06:46:31;53283.13;;;-144.47;48.16
64076;BME280;50327;51.328;12.324;2022-08-02T06:49:04;53245.41;;;-144.47;47.77
64076;BME280;50327;51.328;12.324;2022-08-02T06:51:35;53293.06;;;-144.47;47.67
64076;BME280;50327;51.328;12.324;2022-08-02T06:54:01;53255.34;;;-144.47;47.40
64076;BME280;50327;51.328;12.324;2022-08-02T06:56:29;53221.56;;;-144.47;47.64
64076;BME280;50327;51.328;12.324;2022-08-02T06:59:04;53267.25;;;-144.47;47.79
64076;BME280;50327;51.328;12.324;2022-08-02T07:01:48;53297.03;;;-144.47;48.04
64076;BME280;50327;51.328;12.324;2022-08-02T07:04:19;53265.25;;;-144.47;48.06
64076;BME280;50327;51.328;12.324;2022-08-02T07:06:52;53306.97;;;-144.47;47.94
64076;BME280;50327;51.328;12.324;2022-08-02T07:09:21;53269.22;;;-144.47;47.77
64076;BME280;50327;51.328;12.324;2022-08-02T07:12:01;53271.22;;;-144.47;47.37
64076;BME280;50327;51.328;12.324;2022-08-02T07:14:29;53241.44;;;-144.47;46.93
64076;BME280;50327;51.328;12.324;2022-08-02T07:16:59;53235.47;;;-144.47;46.41
64076;BME280;50327;51.328;12.324;2022-08-02T07:19:26;53269.22;;;-144.47;45.83
64076;BME280;50327;51.328;12.324;2022-08-02T07:21:51;53243.41;;;-144.47;45.40
64076;BME280;50327;51.328;12.324;2022-08-02T07:24:21;53223.56;;;-144.47;45.30
64076;BME280;50327;51.328;12.324;2022-08-02T07:26:56;53245.41;;;-144.47;45.16
64076;BME280;50327;51.328;12.324;2022-08-02T07:29:25;53239.44;;;-144.47;44.61
64076;BME280;50327;51.328;12.324;2022-08-02T07:31:55;53253.34;;;-144.47;44.40
64076;BME280;50327;51.328;12.324;2022-08-02T07:34:23;53273.22;;;-144.47;44.46
64076;BME280;50327;51.328;12.324;2022-08-02T07:36:49;53245.41;;;-144.47;44.51
64076;BME280;50327;51.328;12.324;2022-08-02T07:39:15;53245.41;;;-144.47;44.92
64076;BME280;50327;51.328;12.324;2022-08-02T07:41:45;53267.25;;;-144.47;45.03
64076;BME280;50327;51.328;12.324;2022-08-02T07:44:18;53237.44;;;-144.47;45.08
64076;BME280;50327;51.328;12.324;2022-08-02T07:46:46;53241.44;;;-144.47;45.48
64076;BME280;50327;51.328;12.324;2022-08-02T07:49:16;53237.44;;;-144.47;45.48
64076;BME280;50327;51.328;12.324;2022-08-02T07:51:46;53261.28;;;-144.47;45.66
64076;BME280;50327;51.328;12.324;2022-08-02T07:54:23;53225.53;;;-144.47;45.98
64076;BME280;50327;51.328;12.324;2022-08-02T07:56:49;53243.41;;;-144.47;45.70
64076;BME280;50327;51.328;12.324;2022-08-02T07:59:17;53301.03;;;-144.47;45.82
64076;BME280;50327;51.328;12.324;2022-08-02T08:01:43;53263.28;;;-144.47;45.46
64076;BME280;50327;51.328;12.324;2022-08-02T08:04:14;53245.41;;;-144.47;45.53
64076;BME280;50327;51.328;12.324;2022-08-02T08:06:41;53249.38;;;-144.47;45.88
64076;BME280;50327;51.328;12.324;2022-08-02T08:09:18;53245.41;;;-144.47;45.78
64076;BME280;50327;51.328;12.324;2022-08-02T08:11:44;53227.53;;;-144.47;45.78
64076;BME280;50327;51.328;12.324;2022-08-02T08:14:13;53277.19;;;-144.47;45.63
64076;BME280;50327;51.328;12.324;2022-08-02T08:16:39;53239.44;;;-144.47;45.75
64076;BME280;50327;51.328;12.324;2022-08-02T08:19:08;53235.47;;;-144.47;45.63
64076;BME280;50327;51.328;12.324;2022-08-02T08:21:36;53241.44;;;-144.47;45.25
64076;BME280;50327;51.328;12.324;2022-08-02T08:24:06;53225.53;;;-144.47;45.33
64076;BME280;50327;51.328;12.324;2022-08-02T08:26:31;53235.47;;;-144.47;45.06
64076;BME280;50327;51.328;12.324;2022-08-02T08:29:00;53225.53;;;-144.47;45.12
64076;BME280;50327;51.328;12.324;2022-08-02T08:31:29;53245.41;;;-144.47;44.65
64076;BME280;50327;51.328;12.324;2022-08-02T08:34:21;53269.22;;;-144.47;44.44
64076;BME280;50327;51.328;12.324;2022-08-02T08:36:49;53221.56;;;-144.47;44.28
64076;BME280;50327;51.328;12.324;2022-08-02T08:39:16;53219.56;;;-144.47;44.21
64076;BME280;50327;51.328;12.324;2022-08-02T08:41:42;53223.56;;;-144.47;44.24
64076;BME280;50327;51.328;12.324;2022-08-02T08:44:20;53239.44;;;-144.47;44.11
64076;BME280;50327;51.328;12.324;2022-08-02T08:46:49;53221.56;;;-144.47;44.14
64076;BME280;50327;51.328;12.324;2022-08-02T08:49:31;53231.50;;;-144.47;44.29
64076;BME280;50327;51.328;12.324;2022-08-02T08:52:02;53243.41;;;-144.47;44.26
64076;BME280;50327;51.328;12.324;2022-08-02T08:54:34;53233.47;;;-144.47;44.37
64076;BME280;50327;51.328;12.324;2022-08-02T08:57:14;53241.44;;;-144.47;44.41
64076;BME280;50327;51.328;12.324;2022-08-02T08:59:51;53201.69;;;-144.47;43.72
64076;BME280;50327;51.328;12.324;2022-08-02T09:02:16;53199.72;;;-144.47;43.79
64076;BME280;50327;51.328;12.324;2022-08-02T09:04:47;53261.28;;;-144.47;43.65
64076;BME280;50327;51.328;12.324;2022-08-02T09:07:16;53239.44;;;-144.47;43.74
64076;BME280;50327;51.328;12.324;2022-08-02T09:09:46;53217.59;;;-144.47;43.86
64076;BME280;50327;51.328;12.324;2022-08-02T09:12:20;53229.50;;;-144.47;43.76
64076;BME280;50327;51.328;12.324;2022-08-02T09:14:49;53203.69;;;-144.47;44.06
64076;BME280;50327;51.328;12.324;2022-08-02T09:17:15;53217.59;;;-144.47;43.85
64076;BME280;50327;51.328;12.324;2022-08-02T09:19:43;53219.56;;;-144.47;43.79
64076;BME280;50327;51.328;12.324;2022-08-02T09:22:13;53223.56;;;-144.47;43.69
64076;BME280;50327;51.328;12.324;2022-08-02T09:24:48;53235.47;;;-144.47;43.32
64076;BME280;50327;51.328;12.324;2022-08-02T09:27:20;53237.44;;;-144.47;43.58
64076;BME280;50327;51.328;12.324;2022-08-02T09:29:52;53229.50;;;-144.47;43.43
64076;BME280;50327;51.328;12.324;2022-08-02T09:32:43;53223.56;;;-144.47;43.44
64076;BME280;50327;51.328;12.324;2022-08-02T09:35:13;53237.44;;;-144.47;43.61
64076;BME280;50327;51.328;12.324;2022-08-02T09:38:10;53201.69;;;-144.47;43.61
64076;BME280;50327;51.328;12.324;2022-08-02T09:40:39;53221.56;;;-144.47;43.76
64076;BME280;50327;51.328;12.324;2022-08-02T09:43:13;53217.59;;;-144.47;43.49
64076;BME280;50327;51.328;12.324;2022-08-02T09:45:45;53209.66;;;-144.47;43.49
64076;BME280;50327;51.328;12.324;2022-08-02T09:48:45;53191.78;;;-144.47;42.90
64076;BME280;50327;51.328;12.324;2022-08-02T09:53:57;53185.81;;;-144.47;42.95
64076;BME280;50327;51.328;12.324;2022-08-02T09:56:38;53183.81;;;-144.47;42.79
64076;BME280;50327;51.328;12.324;2022-08-02T09:59:09;53197.72;;;-144.47;43.13
64076;BME280;50327;51.328;12.324;2022-08-02T10:01:37;53225.53;;;-144.47;42.70
64076;BME280;50327;51.328;12.324;2022-08-02T10:04:08;53191.78;;;-144.47;42.80
64076;BME280;50327;51.328;12.324;2022-08-02T10:06:41;53205.66;;;-144.47;42.52
64076;BME280;50327;51.328;12.324;2022-08-02T10:09:22;53211.63;;;-144.47;42.63
64076;BME280;50327;51.328;12.324;2022-08-02T10:11:52;53150.06;;;-144.47;41.93
64076;BME280;50327;51.328;12.324;2022-08-02T10:14:26;53195.75;;;-144.47;41.60
64076;BME280;50327;51.328;12.324;2022-08-02T10:16:52;53181.84;;;-144.47;41.50
64076;BME280;50327;51.328;12.324;2022-08-02T10:19:37;53177.88;;;-144.47;41.00
64076;BME280;50327;51.328;12.324;2022-08-02T10:22:10;53191.78;;;-144.47;40.98
64076;BME280;50327;51.328;12.324;2022-08-02T10:24:38;53173.88;;;-144.47;41.32
64076;BME280;50327;51.328;12.324;2022-08-02T10:27:14;53213.63;;;-144.47;41.33
64076;BME280;50327;51.328;12.324;2022-08-02T10:29:42;53179.84;;;-144.47;41.77
64076;BME280;50327;51.328;12.324;2022-08-02T10:32:09;53185.81;;;-144.47;41.45
64076;BME280;50327;51.328;12.324;2022-08-02T10:38:00;53197.72;;;-144.47;41.13
64076;BME280;50327;51.328;12.324;2022-08-02T10:40:43;53201.69;;;-144.47;41.10
64076;BME280;50327;51.328;12.324;2022-08-02T10:46:34;53173.88;;;-144.47;40.96
64076;BME280;50327;51.328;12.324;2022-08-02T10:49:20;53177.88;;;-144.47;40.66
64076;BME280;50327;51.328;12.324;2022-08-02T10:57:43;53201.69;;;-144.47;39.95
64076;BME280;50327;51.328;12.324;2022-08-02T11:02:46;53165.94;;;-144.47;39.88
64076;BME280;50327;51.328;12.324;2022-08-02T11:05:40;53195.75;;;-144.47;38.96
64076;BME280;50327;51.328;12.324;2022-08-02T11:08:19;53177.88;;;-144.47;38.94
64076;BME280;50327;51.328;12.324;2022-08-02T11:10:50;53189.78;;;-144.47;39.27
64076;BME280;50327;51.328;12.324;2022-08-02T11:13:17;53195.75;;;-144.47;38.60
64076;BME280;50327;51.328;12.324;2022-08-02T11:16:00;53171.91;;;-144.47;38.52
64076;BME280;50327;51.328;12.324;2022-08-02T11:23:54;53207.66;;;-144.47;38.01
64076;BME280;50327;51.328;12.324;2022-08-02T11:29:02;53152.03;;;-144.47;37.66
64076;BME280;50327;51.328;12.324;2022-08-02T11:31:41;53148.06;;;-144.47;37.56
64076;BME280;50327;51.328;12.324;2022-08-02T11:34:08;53142.09;;;-144.47;37.44
64076;BME280;50327;51.328;12.324;2022-08-02T11:36:50;53118.28;;;-144.47;37.80
64076;BME280;50327;51.328;12.324;2022-08-02T11:39:18;53167.94;;;-144.47;37.46
64076;BME280;50327;51.328;12.324;2022-08-02T11:41:59;53140.13;;;-144.47;37.35
64076;BME280;50327;51.328;12.324;2022-08-02T11:44:26;53152.03;;;-144.47;37.33
64076;BME280;50327;51.328;12.324;2022-08-02T11:47:04;53148.06;;;-144.47;37.17
64076;BME280;50327;51.328;12.324;2022-08-02T11:49:33;53146.09;;;-144.47;36.83
64076;BME280;50327;51.328;12.324;2022-08-02T11:52:04;53173.88;;;-144.47;37.03
64076;BME280;50327;51.328;12.324;2022-08-02T11:54:37;53136.16;;;-144.47;36.17
64076;BME280;50327;51.328;12.324;2022-08-02T11:57:17;53156.00;;;-144.47;35.91
64076;BME280;50327;51.328;12.324;2022-08-02T11:59:52;53126.22;;;-144.47;36.43
64076;BME280;50327;51.328;12.324;2022-08-02T12:02:24;53130.19;;;-144.47;36.18
64076;BME280;50327;51.328;12.324;2022-08-02T12:04:54;53120.25;;;-144.47;36.28
64076;BME280;50327;51.328;12.324;2022-08-02T12:07:28;53154.03;;;-144.47;36.25
64076;BME280;50327;51.328;12.324;2022-08-02T12:12:47;53144.09;;;-144.47;34.71
64076;BME280;50327;51.328;12.324;2022-08-02T12:15:39;53150.06;;;-144.47;34.59
64076;BME280;50327;51.328;12.324;2022-08-02T12:18:15;53122.25;;;-144.47;34.88
64076;BME280;50327;51.328;12.324;2022-08-02T12:21:00;53146.09;;;-144.47;35.06
64076;BME280;50327;51.328;12.324;2022-08-02T12:23:28;53150.06;;;-144.47;35.50
64076;BME280;50327;51.328;12.324;2022-08-02T12:26:07;53150.06;;;-144.47;35.51
64076;BME280;50327;51.328;12.324;2022-08-02T12:28:39;53146.09;;;-144.47;35.24
64076;BME280;50327;51.328;12.324;2022-08-02T12:31:12;53165.94;;;-144.47;35.16
64076;BME280;50327;51.328;12.324;2022-08-02T12:33:51;53146.09;;;-144.47;34.75
64076;BME280;50327;51.328;12.324;2022-08-02T12:36:26;53114.31;;;-144.47;34.64
64076;BME280;50327;51.328;12.324;2022-08-02T12:38:57;53154.03;;;-144.47;34.53
64076;BME280;50327;51.328;12.324;2022-08-02T12:41:23;53104.38;;;-144.47;34.47
64076;BME280;50327;51.328;12.324;2022-08-02T12:43:50;53106.34;;;-144.47;34.19
64076;BME280;50327;51.328;12.324;2022-08-02T12:46:18;53120.25;;;-144.47;34.21
64076;BME280;50327;51.328;12.324;2022-08-02T12:49:15;53106.34;;;-144.47;33.99
64076;BME280;50327;51.328;12.324;2022-08-02T12:51:54;53118.28;;;-144.47;33.52
64076;BME280;50327;51.328;12.324;2022-08-02T12:54:27;53104.38;;;-144.47;32.73
64076;BME280;50327;51.328;12.324;2022-08-02T12:57:16;53102.38;;;-144.47;32.05
64076;BME280;50327;51.328;12.324;2022-08-02T13:00:04;53098.41;;;-144.47;31.39
64076;BME280;50327;51.328;12.324;2022-08-02T13:02:30;53066.63;;;-144.47;31.11
64076;BME280;50327;51.328;12.324;2022-08-02T13:05:08;53070.59;;;-144.47;31.26
64076;BME280;50327;51.328;12.324;2022-08-02T13:07:36;53060.66;;;-144.47;30.72
64076;BME280;50327;51.328;12.324;2022-08-02T13:10:04;53022.94;;;-144.47;29.77
64076;BME280;50327;51.328;12.324;2022-08-02T13:12:49;53058.69;;;-144.47;29.25
64076;BME280;50327;51.328;12.324;2022-08-02T13:15:24;53007.03;;;-144.47;28.87
64076;BME280;50327;51.328;12.324;2022-08-02T13:17:52;53007.03;;;-144.47;28.46
64076;BME280;50327;51.328;12.324;2022-08-02T13:20:25;53011.00;;;-144.47;27.99
64076;BME280;50327;51.328;12.324;2022-08-02T13:22:59;53011.00;;;-144.47;28.18
64076;BME280;50327;51.328;12.324;2022-08-02T13:25:27;52987.19;;;-144.47;28.18
64076;BME280;50327;51.328;12.324;2022-08-02T13:28:04;53026.91;;;-144.47;27.93
64076;BME280;50327;51.328;12.324;2022-08-02T13:30:37;53046.75;;;-144.47;27.46
64076;BME280;50327;51.328;12.324;2022-08-02T13:33:14;52965.34;;;-144.47;27.28
64076;BME280;50327;51.328;12.324;2022-08-02T13:35:48;52989.16;;;-144.47;26.81
64076;BME280;50327;51.328;12.324;2022-08-02T13:38:16;52983.22;;;-144.47;26.91
64076;BME280;50327;51.328;12.324;2022-08-02T13:40:53;52961.34;;;-144.47;27.20